Time;durP1;ratioP1;P1;durP2;ratioP2;P2;SDS_P1;SDS_P2;PMS_P1;PMS_P2;Temp;Humidity;BMP_temperature;BMP_pressure;BME280_temperature;BME280_humidity;BME280_pressure;Samples;Min_cycle;Max_cycle;Signal;HPM_P1;HPM_P2
2022/02/08 00:00:58;;;;;;;;;;;2.20;93.20;;;;;;5043012;28;19909;-67
2022/02/08 00:03:24;;;;;;;;;;;2.20;93.20;;;;;;5042831;28;20240;-67
2022/02/08 00:06:09;;;;;;;;;;;2.20;93.20;;;;;;5043110;28;19909;-67
2022/02/08 00:08:34;;;;;;;;;;;2.10;93.30;;;;;;5043106;28;19909;-67
2022/02/08 00:11:00;;;;;;;;;;;2.10;93.40;;;;;;5042797;28;19916;-67
2022/02/08 00:13:26;;;;;;;;;;;2.00;93.50;;;;;;5042849;28;19928;-67
2022/02/08 00:15:52;;;;;;;;;;;2.00;93.60;;;;;;5042177;28;19987;-67
2022/02/08 00:18:17;;;;;;;;;;;2.00;93.70;;;;;;5041612;28;20127;-67
2022/02/08 00:20:43;;;;;;;;;;;2.00;93.70;;;;;;5040913;28;20241;-67
2022/02/08 00:23:09;;;;;;;;;;;1.90;94.00;;;;;;5041736;28;19915;-67
2022/02/08 00:25:34;;;;;;;;;;;2.00;93.90;;;;;;5041807;28;19916;-67
2022/02/08 00:28:00;;;;;;;;;;;2.00;93.90;;;;;;5041416;28;19975;-68
2022/02/08 00:30:26;;;;;;;;;;;2.00;93.80;;;;;;5041649;28;19917;-67
2022/02/08 00:32:51;;;;;;;;;;;2.00;93.80;;;;;;5040877;28;19921;-66
2022/02/08 00:35:17;;;;;;;;;;;2.10;93.80;;;;;;5041505;28;20253;-67
2022/02/08 00:37:43;;;;;;;;;;;2.10;93.80;;;;;;5040611;28;19971;-67
2022/02/08 00:40:09;;;;;;;;;;;2.10;93.80;;;;;;5041540;28;19909;-67
2022/02/08 00:42:35;;;;;;;;;;;2.20;93.60;;;;;;5041297;28;20246;-67
2022/02/08 00:47:40;;;;;;;;;;;2.30;93.10;;;;;;5041347;28;20120;-66
2022/02/08 00:50:08;;;;;;;;;;;2.30;93.00;;;;;;5041477;28;19915;-67
2022/02/08 00:52:34;;;;;;;;;;;2.40;92.90;;;;;;5041083;28;19949;-67
2022/02/08 00:55:00;;;;;;;;;;;2.40;92.80;;;;;;5041418;28;19909;-68
2022/02/08 00:57:26;;;;;;;;;;;2.40;92.80;;;;;;5041227;28;19954;-68
2022/02/08 00:59:51;;;;;;;;;;;2.50;92.80;;;;;;5041691;28;19917;-67
2022/02/08 01:02:18;;;;;;;;;;;2.50;92.70;;;;;;5040913;28;19909;-67
2022/02/08 01:04:48;;;;;;;;;;;2.50;92.60;;;;;;5043264;28;19909;-68
2022/02/08 01:07:14;;;;;;;;;;;2.60;92.40;;;;;;5045429;28;19909;-67
2022/02/08 01:09:52;;;;;;;;;;;2.60;92.20;;;;;;5045520;28;19909;-68
2022/02/08 01:12:17;;;;;;;;;;;2.60;92.30;;;;;;5045103;28;20380;-67
2022/02/08 01:14:45;;;;;;;;;;;2.60;92.00;;;;;;5045342;28;19988;-67
2022/02/08 01:17:13;;;;;;;;;;;2.70;92.00;;;;;;5044945;28;20144;-67
2022/02/08 01:19:45;;;;;;;;;;;2.60;92.10;;;;;;5045052;28;19909;-67
2022/02/08 01:22:11;;;;;;;;;;;2.60;92.30;;;;;;5044211;28;19980;-67
2022/02/08 01:24:37;;;;;;;;;;;2.60;92.40;;;;;;5044996;28;20184;-68
2022/02/08 01:27:08;;;;;;;;;;;2.60;92.30;;;;;;5044718;28;19909;-67
2022/02/08 01:29:40;;;;;;;;;;;2.70;92.20;;;;;;5045118;28;19909;-67
2022/02/08 01:34:58;;;;;;;;;;;2.60;92.10;;;;;;5044955;28;19909;-67
2022/02/08 01:37:50;;;;;;;;;;;2.70;92.00;;;;;;5044661;28;19920;-67
2022/02/08 01:40:30;;;;;;;;;;;2.70;92.10;;;;;;5044368;28;19994;-67
2022/02/08 01:50:35;;;;;;;;;;;2.70;91.90;;;;;;5044594;28;20204;-67
2022/02/08 01:53:01;;;;;;;;;;;2.70;91.80;;;;;;5044450;28;19985;-67
2022/02/08 01:55:27;;;;;;;;;;;2.70;92.20;;;;;;5044453;28;20212;-67
2022/02/08 01:57:52;;;;;;;;;;;2.70;92.00;;;;;;5043858;28;20008;-67
2022/02/08 02:00:19;;;;;;;;;;;2.70;92.00;;;;;;5044577;28;19940;-67
2022/02/08 02:02:44;;;;;;;;;;;2.80;91.80;;;;;;5043972;28;19909;-68
2022/02/08 02:05:10;;;;;;;;;;;2.70;92.00;;;;;;5044286;28;19980;-68
2022/02/08 02:07:36;;;;;;;;;;;2.70;91.90;;;;;;5026482;28;20192;-67
2022/02/08 02:10:03;;;;;;;;;;;2.70;92.00;;;;;;5044187;28;19944;-67
2022/02/08 02:12:29;;;;;;;;;;;2.70;92.20;;;;;;5043549;28;20124;-67
2022/02/08 02:14:58;;;;;;;;;;;2.70;92.20;;;;;;5043926;28;19916;-67
2022/02/08 02:17:24;;;;;;;;;;;2.60;92.30;;;;;;5043030;28;19909;-67
2022/02/08 02:19:49;;;;;;;;;;;2.70;92.20;;;;;;5044063;28;19909;-67
2022/02/08 02:22:15;;;;;;;;;;;2.70;92.20;;;;;;5043126;28;19909;-67
2022/02/08 02:24:41;;;;;;;;;;;2.70;92.30;;;;;;5044027;28;19917;-67
2022/02/08 02:27:07;;;;;;;;;;;2.60;92.30;;;;;;5043755;28;20247;-67
2022/02/08 02:29:32;;;;;;;;;;;2.60;92.40;;;;;;5043944;28;20192;-67
2022/02/08 02:31:59;;;;;;;;;;;2.70;92.20;;;;;;5043511;28;19910;-66
2022/02/08 02:34:25;;;;;;;;;;;2.70;92.20;;;;;;5043898;28;19944;-67
2022/02/08 02:36:52;;;;;;;;;;;2.70;92.10;;;;;;5065287;22;20223;-67
2022/02/08 02:39:22;;;;;;;;;;;2.70;92.10;;;;;;5045844;28;19928;-68
2022/02/08 02:41:48;;;;;;;;;;;2.70;92.00;;;;;;5035113;28;19909;-68
2022/02/08 02:44:17;;;;;;;;;;;2.80;91.80;;;;;;5044495;28;20007;-68
2022/02/08 02:46:43;;;;;;;;;;;2.80;91.70;;;;;;5044602;28;19921;-68
2022/02/08 02:49:09;;;;;;;;;;;2.80;91.70;;;;;;5044679;28;20265;-67
2022/02/08 02:51:35;;;;;;;;;;;2.90;91.80;;;;;;5060155;28;19913;-67
2022/02/08 02:54:00;;;;;;;;;;;2.90;91.90;;;;;;5044436;28;20218;-67
2022/02/08 02:56:26;;;;;;;;;;;2.90;91.70;;;;;;5044509;28;19912;-67
2022/02/08 02:58:59;;;;;;;;;;;2.90;91.80;;;;;;5043128;28;19997;-66
2022/02/08 03:01:35;;;;;;;;;;;2.90;91.60;;;;;;5043181;28;19976;-67
2022/02/08 03:04:23;;;;;;;;;;;2.90;91.70;;;;;;5044206;28;19915;-67
2022/02/08 03:18:46;;;;;;;;;;;3.10;91.50;;;;;;5024223;28;20261;-67
2022/02/08 03:20:41;;;;;;;;;;;3.10;91.40;;;;;;5019057;28;19916;-67
2022/02/08 03:23:06;;;;;;;;;;;3.10;91.80;;;;;;5023926;28;19910;-68
2022/02/08 03:25:32;;;;;;;;;;;3.10;91.70;;;;;;5024080;28;19917;-68
2022/02/08 03:27:58;;;;;;;;;;;3.10;91.40;;;;;;5022393;28;19917;-68
2022/02/08 03:30:24;;;;;;;;;;;3.20;91.30;;;;;;5023898;28;19909;-69
2022/02/08 03:32:50;;;;;;;;;;;3.20;91.20;;;;;;5023654;28;19917;-69
2022/02/08 03:35:16;;;;;;;;;;;3.20;91.10;;;;;;5027173;28;19920;-69
2022/02/08 03:37:52;;;;;;;;;;;3.20;91.00;;;;;;5045506;28;19921;-69
2022/02/08 03:40:30;;;;;;;;;;;3.20;90.90;;;;;;5057786;28;19920;-68
2022/02/08 03:42:59;;;;;;;;;;;3.20;91.10;;;;;;5042250;28;19912;-68
2022/02/08 03:45:25;;;;;;;;;;;3.30;90.90;;;;;;5043518;28;20343;-67
2022/02/08 03:47:51;;;;;;;;;;;3.30;90.80;;;;;;5043336;28;19916;-67
2022/02/08 03:50:16;;;;;;;;;;;3.30;90.90;;;;;;5043243;28;19909;-69
2022/02/08 03:52:42;;;;;;;;;;;3.30;91.00;;;;;;5042735;28;19909;-69
2022/02/08 03:55:09;;;;;;;;;;;3.40;90.80;;;;;;5043324;28;19921;-70
2022/02/08 03:57:34;;;;;;;;;;;3.40;90.60;;;;;;5043148;28;19932;-68
2022/02/08 04:00:00;;;;;;;;;;;3.40;90.60;;;;;;5042089;28;19909;-68
2022/02/08 04:05:00;;;;;;;;;;;3.40;90.60;;;;;;5043292;28;19915;-68
2022/02/08 04:07:33;;;;;;;;;;;3.40;90.60;;;;;;5047170;28;19909;-68
2022/02/08 04:10:03;;;;;;;;;;;3.40;90.80;;;;;;5063008;28;19947;-68
2022/02/08 04:12:38;;;;;;;;;;;3.40;90.90;;;;;;5062565;28;20107;-67
2022/02/08 04:41:40;;;;;;;;;;;3.40;91.20;;;;;;5022688;28;19917;-68
2022/02/08 04:49:06;;;;;;;;;;;3.30;91.40;;;;;;5022803;28;19980;-68
2022/02/08 04:51:46;;;;;;;;;;;3.40;91.30;;;;;;5021218;28;20188;-68
2022/02/08 04:54:35;;;;;;;;;;;3.40;91.20;;;;;;5021092;28;19917;-68
2022/02/08 04:57:21;;;;;;;;;;;3.30;91.50;;;;;;5022629;28;20120;-68
2022/02/08 05:44:59;;;;;;;;;;;3.50;91.00;;;;;;5062098;28;19944;-67
2022/02/08 05:47:26;;;;;;;;;;;3.50;91.00;;;;;;5042126;28;19913;-68
2022/02/08 05:50:06;;;;;;;;;;;3.50;90.90;;;;;;5024479;28;19910;-68
2022/02/08 05:54:57;;;;;;;;;;;3.50;91.40;;;;;;5065755;28;19920;-68
2022/02/08 05:57:23;;;;;;;;;;;3.50;92.20;;;;;;5036649;28;19925;-69
2022/02/08 05:59:51;;;;;;;;;;;3.50;91.90;;;;;;5044247;28;19916;-69
2022/02/08 06:02:18;;;;;;;;;;;3.50;92.20;;;;;;5042101;28;19916;-69
2022/02/08 06:04:44;;;;;;;;;;;3.50;92.50;;;;;;5044579;28;19924;-69
2022/02/08 06:07:15;;;;;;;;;;;3.50;92.60;;;;;;5027209;28;19917;-69
2022/02/08 06:09:40;;;;;;;;;;;3.40;93.00;;;;;;5027425;28;19955;-69
2022/02/08 06:12:07;;;;;;;;;;;3.40;93.30;;;;;;5044543;28;19976;-68
2022/02/08 06:14:35;;;;;;;;;;;3.40;93.10;;;;;;5044820;28;19917;-68
2022/02/08 06:17:01;;;;;;;;;;;3.50;93.50;;;;;;5044889;28;19909;-67
2022/02/08 06:19:26;;;;;;;;;;;3.60;93.50;;;;;;5044556;28;19916;-69
2022/02/08 06:21:52;;;;;;;;;;;3.50;93.10;;;;;;5044100;28;19909;-68
2022/02/08 06:24:18;;;;;;;;;;;3.50;93.30;;;;;;5062308;28;19967;-69
2022/02/08 06:26:44;;;;;;;;;;;3.60;93.40;;;;;;5064352;28;19948;-68
2022/02/08 06:29:15;;;;;;;;;;;3.60;93.20;;;;;;5030030;28;19920;-68
2022/02/08 06:31:42;;;;;;;;;;;3.50;93.10;;;;;;5064080;28;19917;-69
2022/02/08 06:34:08;;;;;;;;;;;3.60;93.30;;;;;;5013755;28;19962;-68
2022/02/08 06:36:33;;;;;;;;;;;3.60;93.50;;;;;;5063080;28;19921;-68
2022/02/08 06:38:59;;;;;;;;;;;3.50;93.40;;;;;;5046176;28;20092;-69
2022/02/08 06:41:25;;;;;;;;;;;3.60;93.30;;;;;;5064091;28;19908;-69
2022/02/08 06:43:51;;;;;;;;;;;3.60;93.30;;;;;;5064321;28;19915;-69
2022/02/08 06:46:16;;;;;;;;;;;3.60;93.30;;;;;;5064360;28;19912;-69
2022/02/08 06:48:42;;;;;;;;;;;3.60;93.50;;;;;;5045211;28;19975;-69
2022/02/08 06:51:08;;;;;;;;;;;3.70;93.60;;;;;;5063851;28;19916;-68
2022/02/08 06:53:34;;;;;;;;;;;3.80;93.60;;;;;;5064179;28;19912;-70
2022/02/08 06:56:02;;;;;;;;;;;3.70;93.70;;;;;;5064376;28;19920;-69
2022/02/08 06:58:35;;;;;;;;;;;3.70;93.90;;;;;;5046443;28;19915;-69
2022/02/08 07:01:03;;;;;;;;;;;3.80;94.10;;;;;;5063489;28;19909;-69
2022/02/08 07:03:30;;;;;;;;;;;3.80;94.30;;;;;;5045388;28;20125;-69
2022/02/08 07:05:56;;;;;;;;;;;3.80;94.40;;;;;;5029950;28;20027;-69
2022/02/08 07:08:24;;;;;;;;;;;3.70;94.60;;;;;;5063991;28;19913;-69
2022/02/08 07:10:49;;;;;;;;;;;3.70;95.00;;;;;;5063565;28;19915;-69
2022/02/08 07:13:15;;;;;;;;;;;3.70;95.20;;;;;;5062407;28;19908;-69
2022/02/08 07:15:41;;;;;;;;;;;3.70;95.40;;;;;;5063891;28;19920;-69
2022/02/08 07:18:07;;;;;;;;;;;3.70;95.60;;;;;;5063656;28;20119;-69
2022/02/08 07:20:34;;;;;;;;;;;3.60;95.90;;;;;;5063340;28;19916;-69
2022/02/08 07:23:00;;;;;;;;;;;3.70;96.00;;;;;;5051056;28;19966;-68
2022/02/08 07:25:25;;;;;;;;;;;3.60;96.10;;;;;;5026181;28;19971;-70
2022/02/08 07:27:51;;;;;;;;;;;3.70;96.30;;;;;;5043310;28;19909;-69
2022/02/08 07:30:17;;;;;;;;;;;3.70;96.40;;;;;;5043447;28;20000;-68
2022/02/08 07:32:43;;;;;;;;;;;3.60;96.50;;;;;;5057470;28;19908;-69
2022/02/08 07:35:23;;;;;;;;;;;3.60;96.70;;;;;;5063642;28;20150;-70
2022/02/08 07:37:53;;;;;;;;;;;3.60;96.80;;;;;;5063547;28;20278;-70
2022/02/08 07:40:44;;;;;;;;;;;3.60;97.00;;;;;;5063321;28;19916;-70
2022/02/08 07:43:09;;;;;;;;;;;3.60;97.20;;;;;;5063417;28;20178;-70
2022/02/08 07:45:35;;;;;;;;;;;3.60;97.20;;;;;;5063544;28;19936;-70
2022/02/08 07:48:01;;;;;;;;;;;3.70;97.40;;;;;;5045757;28;19908;-70
2022/02/08 07:50:27;;;;;;;;;;;3.70;97.40;;;;;;5035029;28;20112;-69
2022/02/08 07:52:53;;;;;;;;;;;3.60;97.30;;;;;;5025338;28;20073;-69
2022/02/08 07:55:22;;;;;;;;;;;3.70;97.50;;;;;;5042361;28;19927;-70
2022/02/08 07:57:48;;;;;;;;;;;3.70;97.40;;;;;;5043012;28;19980;-68
2022/02/08 08:00:14;;;;;;;;;;;3.70;97.40;;;;;;5025654;28;19917;-69
2022/02/08 08:02:39;;;;;;;;;;;3.80;97.30;;;;;;5039602;28;19912;-69
2022/02/08 08:05:06;;;;;;;;;;;3.80;97.40;;;;;;5063182;28;19908;-69
2022/02/08 08:07:32;;;;;;;;;;;3.70;97.40;;;;;;5062878;28;19909;-68
2022/02/08 08:10:01;;;;;;;;;;;3.90;97.40;;;;;;5061837;28;20117;-69
2022/02/08 08:12:27;;;;;;;;;;;3.90;97.30;;;;;;5062357;28;19945;-70
2022/02/08 08:14:53;;;;;;;;;;;3.90;97.30;;;;;;5062819;28;19943;-69
2022/02/08 08:19:54;;;;;;;;;;;3.90;97.40;;;;;;5046266;28;19924;-69
2022/02/08 08:22:20;;;;;;;;;;;3.90;97.50;;;;;;5044717;28;20007;-69
2022/02/08 08:24:46;;;;;;;;;;;4.00;97.60;;;;;;5044956;28;19912;-69
2022/02/08 08:27:12;;;;;;;;;;;4.00;97.90;;;;;;5044899;28;19909;-69
2022/02/08 08:29:38;;;;;;;;;;;4.00;97.60;;;;;;5063190;28;19913;-69
2022/02/08 08:32:05;;;;;;;;;;;4.00;97.70;;;;;;5045268;28;20322;-70
2022/02/08 08:34:32;;;;;;;;;;;4.00;97.80;;;;;;5045379;28;19908;-70
2022/02/08 08:36:57;;;;;;;;;;;4.00;98.00;;;;;;5044600;28;19913;-70
2022/02/08 08:39:27;;;;;;;;;;;4.10;98.30;;;;;;5044937;28;19916;-70
2022/02/08 08:42:18;;;;;;;;;;;4.10;98.40;;;;;;5037110;28;19998;-69
2022/02/08 08:50:11;;;;;;;;;;;4.10;98.50;;;;;;5027744;28;20257;-70
2022/02/08 08:52:50;;;;;;;;;;;4.10;98.60;;;;;;5026630;28;20208;-70
2022/02/08 08:55:16;;;;;;;;;;;4.20;98.70;;;;;;5042067;28;19941;-70
2022/02/08 08:57:42;;;;;;;;;;;4.20;98.70;;;;;;5041534;28;19909;-70
2022/02/08 09:00:09;;;;;;;;;;;4.20;98.80;;;;;;5041747;28;19921;-70
2022/02/08 09:02:35;;;;;;;;;;;4.20;99.00;;;;;;5037525;28;19908;-70
2022/02/08 09:05:03;;;;;;;;;;;4.20;99.10;;;;;;5061747;28;19916;-70
2022/02/08 09:07:29;;;;;;;;;;;4.20;99.00;;;;;;5060402;28;19917;-70
2022/02/08 09:09:59;;;;;;;;;;;4.20;99.10;;;;;;5061603;28;19992;-70
2022/02/08 09:12:27;;;;;;;;;;;4.30;99.10;;;;;;5061145;28;20115;-70
2022/02/08 09:15:13;;;;;;;;;;;4.30;99.10;;;;;;5044175;28;19944;-70
2022/02/08 09:30:18;;;;;;;;;;;4.50;99.40;;;;;;5048831;28;19908;-69
2022/02/08 09:32:53;;;;;;;;;;;4.50;99.40;;;;;;5047654;28;19951;-68
2022/02/08 09:35:19;;;;;;;;;;;4.60;99.00;;;;;;5049139;28;19920;-70
2022/02/08 09:37:45;;;;;;;;;;;4.60;99.00;;;;;;5047412;28;19959;-70
2022/02/08 09:40:12;;;;;;;;;;;4.70;99.00;;;;;;5047642;28;20148;-70
2022/02/08 09:42:39;;;;;;;;;;;4.70;98.90;;;;;;5030790;28;19909;-70
2022/02/08 09:45:07;;;;;;;;;;;4.80;98.80;;;;;;5065753;28;20027;-70
2022/02/08 09:47:43;;;;;;;;;;;4.70;99.00;;;;;;5065736;28;19920;-70
2022/02/08 09:50:16;;;;;;;;;;;4.80;98.90;;;;;;5049278;28;20235;-70
2022/02/08 09:52:47;;;;;;;;;;;4.70;98.80;;;;;;5065296;28;19909;-70
2022/02/08 09:55:14;;;;;;;;;;;4.70;99.10;;;;;;5048729;28;20007;-70
2022/02/08 09:57:39;;;;;;;;;;;4.70;98.90;;;;;;5065259;28;20113;-70
2022/02/08 10:00:06;;;;;;;;;;;4.80;99.00;;;;;;5030777;28;19948;-70
2022/02/08 10:02:32;;;;;;;;;;;4.80;99.10;;;;;;5049624;28;19952;-70
2022/02/08 10:05:02;;;;;;;;;;;4.80;99.20;;;;;;5027797;28;20200;-70
2022/02/08 10:07:32;;;;;;;;;;;4.80;98.80;;;;;;5027924;28;19976;-70
2022/02/08 10:09:59;;;;;;;;;;;4.90;98.90;;;;;;5044172;28;20120;-67
2022/02/08 10:12:31;;;;;;;;;;;4.90;98.90;;;;;;5010819;28;19909;-69
2022/02/08 10:22:55;;;;;;;;;;;4.80;98.70;;;;;;5030019;28;20144;-70
2022/02/08 10:28:10;;;;;;;;;;;4.90;98.40;;;;;;5011444;28;19913;-70
2022/02/08 10:38:41;;;;;;;;;;;5.20;97.70;;;;;;5028965;28;19924;-70
2022/02/08 10:41:18;;;;;;;;;;;5.30;97.40;;;;;;5043401;28;19944;-70
2022/02/08 10:43:58;;;;;;;;;;;5.20;97.40;;;;;;5044524;28;19917;-70
2022/02/08 10:46:24;;;;;;;;;;;5.30;97.50;;;;;;5043670;28;19916;-70
2022/02/08 10:49:09;;;;;;;;;;;5.20;97.40;;;;;;5044562;28;19909;-70
2022/02/08 10:51:43;;;;;;;;;;;5.30;97.40;;;;;;5043304;28;20073;-70
2022/02/08 10:54:16;;;;;;;;;;;5.20;97.50;;;;;;5044462;28;19927;-70
2022/02/08 10:56:48;;;;;;;;;;;5.30;97.60;;;;;;5044445;28;19920;-70
2022/02/08 10:59:38;;;;;;;;;;;5.30;97.70;;;;;;5044216;28;19909;-70
2022/02/08 11:02:09;;;;;;;;;;;5.40;98.00;;;;;;5053564;28;19916;-69
2022/02/08 11:05:03;;;;;;;;;;;5.30;98.30;;;;;;5064361;28;19909;-71
2022/02/08 11:10:26;;;;;;;;;;;5.30;98.80;;;;;;5047306;28;20270;-70
2022/02/08 11:21:04;;;;;;;;;;;5.40;99.10;;;;;;5048280;28;20207;-69
2022/02/08 11:23:35;;;;;;;;;;;5.40;99.40;;;;;;5063937;28;19924;-69
2022/02/08 11:26:01;;;;;;;;;;;5.40;99.50;;;;;;5045646;28;19976;-70
2022/02/08 11:28:41;;;;;;;;;;;5.30;99.50;;;;;;5029330;28;19915;-70
2022/02/08 11:31:35;;;;;;;;;;;5.40;99.50;;;;;;5030963;28;20111;-69
2022/02/08 11:51:02;;;;;;;;;;;5.60;99.50;;;;;;5063334;28;19921;-70
2022/02/08 11:53:38;;;;;;;;;;;5.70;99.40;;;;;;5050000;28;19908;-69
2022/02/08 12:02:04;;;;;;;;;;;5.80;99.20;;;;;;5060049;28;19984;-70
2022/02/08 12:04:39;;;;;;;;;;;5.90;99.10;;;;;;5048998;28;19954;-70
2022/02/08 12:07:10;;;;;;;;;;;6.00;98.80;;;;;;5062979;28;19912;-69
2022/02/08 12:48:38;;;;;;;;;;;6.40;97.80;;;;;;5062496;28;19915;-69
2022/02/08 12:58:47;;;;;;;;;;;6.60;97.40;;;;;;5062071;28;19915;-70
2022/02/08 13:04:04;;;;;;;;;;;6.70;96.80;;;;;;5062276;28;19917;-73
2022/02/08 13:32:28;;;;;;;;;;;6.80;95.70;;;;;;5062066;28;19923;-69
2022/02/08 14:25:30;;;;;;;;;;;6.80;95.90;;;;;;5011918;28;19923;-68
2022/02/08 14:30:54;;;;;;;;;;;6.80;95.90;;;;;;5063382;28;19915;-68
2022/02/08 14:36:10;;;;;;;;;;;6.80;95.90;;;;;;5063363;28;19959;-69
2022/02/08 15:10:36;;;;;;;;;;;6.80;95.80;;;;;;5063069;28;20139;-68
2022/02/08 15:13:03;;;;;;;;;;;6.90;95.80;;;;;;5046347;28;19948;-68
2022/02/08 15:16:03;;;;;;;;;;;6.80;95.80;;;;;;5045267;28;19928;-68
2022/02/08 15:18:32;;;;;;;;;;;6.80;95.70;;;;;;5049961;28;19917;-69
2022/02/08 15:20:58;;;;;;;;;;;6.80;95.90;;;;;;5045141;28;19909;-69
2022/02/08 15:23:25;;;;;;;;;;;6.80;95.90;;;;;;5061855;28;20064;-69
2022/02/08 15:25:54;;;;;;;;;;;6.80;96.00;;;;;;5062624;28;19920;-69
2022/02/08 15:28:22;;;;;;;;;;;6.80;96.10;;;;;;5062543;28;19999;-69
2022/02/08 15:30:48;;;;;;;;;;;6.80;96.30;;;;;;5028158;28;19978;-69
2022/02/08 15:33:13;;;;;;;;;;;6.80;96.10;;;;;;5062364;28;20195;-69
2022/02/08 15:35:39;;;;;;;;;;;6.80;96.20;;;;;;5062451;28;19913;-69
2022/02/08 15:38:07;;;;;;;;;;;6.80;96.50;;;;;;5061137;28;20465;-69
2022/02/08 15:40:33;;;;;;;;;;;6.80;96.70;;;;;;5062126;28;19947;-69
2022/02/08 15:42:59;;;;;;;;;;;6.80;96.80;;;;;;5044441;28;20085;-69
2022/02/08 15:45:31;;;;;;;;;;;6.80;96.90;;;;;;5044361;28;19915;-69
2022/02/08 15:47:59;;;;;;;;;;;6.70;97.10;;;;;;5062013;28;19916;-68
2022/02/08 15:53:10;;;;;;;;;;;6.70;97.20;;;;;;5056327;28;19925;-69
2022/02/08 16:08:50;;;;;;;;;;;6.70;96.80;;;;;;5050979;28;20016;-69
2022/02/08 16:13:50;;;;;;;;;;;6.70;97.10;;;;;;5061668;28;20007;-69
2022/02/08 16:18:53;;;;;;;;;;;6.60;97.20;;;;;;5061586;28;19940;-70
2022/02/08 16:29:10;;;;;;;;;;;6.70;97.30;;;;;;5060069;28;19924;-70
2022/02/08 16:58:28;;;;;;;;;;;6.50;97.80;;;;;;5061047;28;19916;-69
2022/02/08 17:00:58;;;;;;;;;;;6.50;98.00;;;;;;5060456;28;19962;-69
2022/02/08 17:03:28;;;;;;;;;;;6.50;97.90;;;;;;5060761;28;19943;-69
2022/02/08 17:05:54;;;;;;;;;;;6.50;97.90;;;;;;5060868;28;19992;-69
2022/02/08 17:08:22;;;;;;;;;;;6.50;97.90;;;;;;5060605;28;19909;-69
2022/02/08 17:10:50;;;;;;;;;;;6.50;97.90;;;;;;5026104;28;19908;-69
2022/02/08 17:16:16;;;;;;;;;;;6.50;97.70;;;;;;5060858;28;19909;-69
2022/02/08 17:45:57;;;;;;;;;;;6.50;97.90;;;;;;5001308;28;19941;-69
2022/02/08 17:48:23;;;;;;;;;;;6.50;97.80;;;;;;5003214;28;19930;-68
2022/02/08 17:50:49;;;;;;;;;;;6.50;97.90;;;;;;5024902;28;19909;-69
2022/02/08 17:53:17;;;;;;;;;;;6.50;97.80;;;;;;5044739;28;19985;-69
2022/02/08 17:55:43;;;;;;;;;;;6.50;97.70;;;;;;5027049;28;19962;-70
2022/02/08 17:58:09;;;;;;;;;;;6.50;97.90;;;;;;5010657;28;19952;-70
2022/02/08 18:00:36;;;;;;;;;;;6.50;97.90;;;;;;5026787;28;19915;-68
2022/02/08 18:03:05;;;;;;;;;;;6.50;97.90;;;;;;5044556;28;19909;-69
2022/02/08 18:05:31;;;;;;;;;;;6.40;98.00;;;;;;5026784;28;20030;-69
2022/02/08 18:07:57;;;;;;;;;;;6.50;98.00;;;;;;5026718;28;19909;-69
2022/02/08 18:10:24;;;;;;;;;;;6.40;98.00;;;;;;5026678;28;19932;-69
2022/02/08 18:12:53;;;;;;;;;;;6.50;98.00;;;;;;5059513;28;19928;-69
2022/02/08 18:15:19;;;;;;;;;;;6.50;98.10;;;;;;5064251;28;19950;-69
2022/02/08 18:17:52;;;;;;;;;;;6.40;98.10;;;;;;5046412;28;19966;-69
2022/02/08 19:19:03;;;;;;;;;;;6.50;97.80;;;;;;5041798;28;20170;-64
2022/02/08 19:23:54;;;;;;;;;;;6.50;97.90;;;;;;5058230;28;20089;-65
2022/02/08 19:26:23;;;;;;;;;;;6.50;97.90;;;;;;5042541;28;19917;-64
2022/02/08 19:28:50;;;;;;;;;;;6.40;97.90;;;;;;5047398;28;19978;-66
2022/02/08 19:31:19;;;;;;;;;;;6.50;98.00;;;;;;5062030;28;19955;-64
2022/02/08 19:33:51;;;;;;;;;;;6.50;98.00;;;;;;5062473;28;19974;-65
2022/02/08 19:36:17;;;;;;;;;;;6.40;98.00;;;;;;5062424;28;19988;-66
2022/02/08 19:38:48;;;;;;;;;;;6.40;98.00;;;;;;5061108;28;19913;-71
2022/02/08 19:41:18;;;;;;;;;;;6.40;98.00;;;;;;5036676;28;19921;-68
2022/02/08 19:43:43;;;;;;;;;;;6.50;98.20;;;;;;5024309;28;19948;-66
2022/02/08 19:46:09;;;;;;;;;;;6.50;98.10;;;;;;5061198;28;19936;-66
2022/02/08 19:48:35;;;;;;;;;;;6.50;98.00;;;;;;5044030;28;19908;-66
2022/02/08 19:51:01;;;;;;;;;;;6.50;98.10;;;;;;5061555;28;19909;-66
2022/02/08 19:53:30;;;;;;;;;;;6.50;98.00;;;;;;5061568;28;19925;-67
2022/02/08 19:58:25;;;;;;;;;;;6.60;98.00;;;;;;5041422;28;20026;-66
2022/02/08 20:01:00;;;;;;;;;;;6.50;97.90;;;;;;5023539;28;19917;-66
2022/02/08 20:03:32;;;;;;;;;;;6.50;97.90;;;;;;5023718;28;19913;-66
2022/02/08 20:05:57;;;;;;;;;;;6.50;97.90;;;;;;5041776;28;19913;-67
2022/02/08 20:08:26;;;;;;;;;;;6.50;98.00;;;;;;5041497;28;19940;-66
2022/02/08 20:10:53;;;;;;;;;;;6.50;97.90;;;;;;5023862;28;20257;-66
2022/02/08 20:13:24;;;;;;;;;;;6.50;98.00;;;;;;5041297;28;19917;-66
2022/02/08 20:15:50;;;;;;;;;;;6.50;97.90;;;;;;5046628;28;19987;-66
2022/02/08 20:18:17;;;;;;;;;;;6.60;97.90;;;;;;5041047;28;19909;-66
2022/02/08 20:20:43;;;;;;;;;;;6.60;97.70;;;;;;5041101;28;19940;-66
2022/02/08 20:23:09;;;;;;;;;;;6.60;97.60;;;;;;5041703;28;20363;-66
2022/02/08 20:25:43;;;;;;;;;;;6.60;97.70;;;;;;5041681;28;19913;-65
2022/02/08 20:28:16;;;;;;;;;;;6.60;97.70;;;;;;5041702;28;20196;-65
2022/02/08 20:30:42;;;;;;;;;;;6.70;97.60;;;;;;5056363;28;19953;-66
2022/02/08 20:33:07;;;;;;;;;;;6.70;97.40;;;;;;5061433;28;19912;-67
2022/02/08 20:35:33;;;;;;;;;;;6.70;97.30;;;;;;5061481;28;19917;-66
2022/02/08 20:37:59;;;;;;;;;;;6.70;97.30;;;;;;5043415;28;19940;-66
2022/02/08 20:40:25;;;;;;;;;;;6.70;97.40;;;;;;5061392;28;20265;-65
2022/02/08 20:42:54;;;;;;;;;;;6.70;97.50;;;;;;5059590;28;20004;-66
2022/02/08 20:45:20;;;;;;;;;;;6.60;97.60;;;;;;5061295;28;19917;-66
2022/02/08 20:47:47;;;;;;;;;;;6.60;97.60;;;;;;5043539;28;19962;-66
2022/02/08 20:50:16;;;;;;;;;;;6.60;97.70;;;;;;5061148;28;19944;-66
2022/02/08 20:53:33;;;;;;;;;;;6.60;97.70;;;;;;5055772;28;19929;-65
2022/02/08 20:55:44;;;;;;;;;;;6.60;97.70;;;;;;5040512;28;19919;-66
2022/02/08 20:58:38;;;;;;;;;;;6.60;97.60;;;;;;5038182;28;19935;-66
2022/02/08 21:01:03;;;;;;;;;;;6.70;97.50;;;;;;5021035;28;19925;-65
2022/02/08 21:03:40;;;;;;;;;;;6.60;97.60;;;;;;5020244;28;19910;-66
2022/02/08 21:06:13;;;;;;;;;;;6.60;97.90;;;;;;5005456;28;20171;-66
2022/02/08 21:08:38;;;;;;;;;;;6.60;97.80;;;;;;5021305;28;19917;-66
2022/02/08 21:11:05;;;;;;;;;;;6.60;97.70;;;;;;5020983;28;19910;-66
2022/02/08 21:16:26;;;;;;;;;;;6.60;97.60;;;;;;5054226;28;19955;-66
2022/02/08 21:18:52;;;;;;;;;;;6.60;97.70;;;;;;5040873;28;20046;-66
2022/02/08 21:21:18;;;;;;;;;;;6.60;97.80;;;;;;5041674;28;19954;-65
2022/02/08 21:23:45;;;;;;;;;;;6.60;97.70;;;;;;5045041;28;19948;-66
2022/02/08 21:26:15;;;;;;;;;;;6.60;97.70;;;;;;5045175;28;20005;-66
2022/02/08 21:29:06;;;;;;;;;;;6.60;97.60;;;;;;5027621;28;20224;-66
2022/02/08 21:31:48;;;;;;;;;;;6.60;97.60;;;;;;5042955;28;19924;-65
2022/02/08 21:52:47;;;;;;;;;;;6.60;97.50;;;;;;5063994;28;19928;-66
2022/02/08 21:55:14;;;;;;;;;;;6.60;97.50;;;;;;5046671;28;20319;-66
2022/02/08 21:57:51;;;;;;;;;;;6.60;97.50;;;;;;5046436;28;19936;-66
2022/02/08 22:00:19;;;;;;;;;;;6.50;97.60;;;;;;5035854;28;19940;-66
2022/02/08 22:02:44;;;;;;;;;;;6.50;97.70;;;;;;5043599;28;19939;-67
2022/02/08 22:05:10;;;;;;;;;;;6.60;97.60;;;;;;5026596;28;19917;-66
2022/02/08 22:07:36;;;;;;;;;;;6.60;97.50;;;;;;5026492;28;20160;-66
2022/02/08 22:10:23;;;;;;;;;;;6.60;97.30;;;;;;5026575;28;19936;-66
2022/02/08 22:18:55;;;;;;;;;;;6.70;97.20;;;;;;5021012;28;20255;-66
2022/02/08 22:24:04;;;;;;;;;;;6.60;97.60;;;;;;5042551;28;19963;-67
2022/02/08 22:32:15;;;;;;;;;;;6.60;97.70;;;;;;5041568;28;19913;-66
2022/02/08 22:35:00;;;;;;;;;;;6.60;97.70;;;;;;5042452;28;19913;-65
2022/02/08 22:37:30;;;;;;;;;;;6.70;97.50;;;;;;5043479;28;19951;-65
2022/02/08 22:40:03;;;;;;;;;;;6.60;97.50;;;;;;5043398;28;20204;-66
2022/02/08 22:42:43;;;;;;;;;;;6.60;97.50;;;;;;5041876;28;20183;-67
2022/02/08 22:45:13;;;;;;;;;;;6.60;97.60;;;;;;5043532;28;19924;-66
2022/02/08 22:47:42;;;;;;;;;;;6.60;97.60;;;;;;5047314;28;19992;-66
2022/02/08 22:50:08;;;;;;;;;;;6.60;97.60;;;;;;5045920;28;20365;-67
2022/02/08 22:52:34;;;;;;;;;;;6.50;97.70;;;;;;5063027;28;20018;-66
2022/02/08 22:55:00;;;;;;;;;;;6.50;97.80;;;;;;5063207;28;20012;-66
2022/02/08 22:57:26;;;;;;;;;;;6.60;97.70;;;;;;5063037;28;19909;-66
2022/02/08 22:59:55;;;;;;;;;;;6.60;97.90;;;;;;5063343;28;20223;-67
2022/02/08 23:02:21;;;;;;;;;;;6.60;97.80;;;;;;5062982;28;19909;-66
2022/02/08 23:04:48;;;;;;;;;;;6.60;97.80;;;;;;5063007;28;19909;-66
2022/02/08 23:07:14;;;;;;;;;;;6.60;97.70;;;;;;5063003;28;19923;-67
2022/02/08 23:09:47;;;;;;;;;;;6.70;97.60;;;;;;5063151;28;20163;-66
2022/02/08 23:39:25;;;;;;;;;;;6.60;97.80;;;;;;5047574;28;19923;-67
2022/02/08 23:41:51;;;;;;;;;;;6.60;97.80;;;;;;5044633;28;20187;-67
2022/02/08 23:44:18;;;;;;;;;;;6.60;97.90;;;;;;5044108;28;19909;-67
2022/02/08 23:46:44;;;;;;;;;;;6.60;97.80;;;;;;5062118;28;19947;-68
2022/02/08 23:49:28;;;;;;;;;;;6.60;97.90;;;;;;5061195;28;20174;-68
2022/02/08 23:51:56;;;;;;;;;;;6.60;98.00;;;;;;5062084;28;19921;-68
2022/02/08 23:54:25;;;;;;;;;;;6.50;98.10;;;;;;5062073;28;19950;-66
2022/02/08 23:57:12;;;;;;;;;;;6.50;98.10;;;;;;5062053;28;20039;-66